X  Blizu METAR Podaci o vazduhoplovstvu     LGRX Patras Araxos Agamemnon Airport
Temperatura
9°C Temperatura
4°C Tačka Rose
71% Vlaga



Vetar
8 KM/S
5 MPS
2 M/S
4 Čvorovi



70°
ISI
Trenutna situacija

Delimično oblačno Delimično oblačno
Vazdušni pritisak 1012.92 (hPa) - 29.91 (inHg)
Vidljivost 6.2 (Milje) - 10 (km)
Aerodrom
Aerodromski kod. LGRX

Lokacija: Patras Araxos Agamemnon Airport
Udaljenost: 108 (km)

Metar:
LGRX 290420Z 07004KT 9999 FEW020 09/04 Q1013

Vreme: 29-11-2022 06:20 EET